»·PEaware :: DIHNF KSZT-65S

DIHNF :: KSZT-65S

FLIGHT INFORMATION

Flight Status: Arrived
Operator: Unknown
More flights by this operator :: More flights under this callsign
Pilot: Klaus A. (15485)
Aircraft: BEECH AIRCRAFT BARON
(BE58)
More flights by this aircraft type
Origin: KSZT Sandpoint
United States
Destination: 65S Boundary Co
United States
More flights between these airports :: More routes between these airports
Route: COE KARPS
File this flight plan on PilotEdge
Remarks: / G Custom weather
Altitude:
(Current/Filed)
10,000ft
Speed:
(Current/Filed)
170kts
Departed: 07-Dec-18 08:58 AM
Arrived: 07-Dec-18 09:40 AM
Distance/Time
Traveled:
4389nm/0:42
Distance/Time
To Go:
Arrived

Flight Plot

Page will automatically refresh every two minutes.

Flight plan parsing failed; only flown route is shown


Map Options




Map Legend


Flown Route
Filed Route
Departure Airport
Arrival Airport
Navaid (VOR, NDB)
Fix

Horizontal Profiles

Position Reports

Time Latitude Longitude Heading Altitude Ground
Speed
07-Dec-18 08:42 48.292445 -116.564867 28 2131ft 0kts
07-Dec-18 08:42 48.292445 -116.564867 28 2131ft 0kts
07-Dec-18 08:43 48.292445 -116.564867 28 2131ft 0kts
07-Dec-18 08:44 48.292445 -116.564867 28 2131ft 0kts
07-Dec-18 08:45 48.292445 -116.564867 28 2131ft 0kts
07-Dec-18 08:46 48.292445 -116.564867 28 2131ft 0kts
07-Dec-18 08:48 48.292445 -116.564867 28 2131ft 0kts
07-Dec-18 08:48 48.292445 -116.564867 28 2131ft 0kts
07-Dec-18 08:49 48.292445 -116.564867 28 2131ft 0kts
07-Dec-18 08:50 48.292445 -116.564867 28 2131ft 0kts
07-Dec-18 08:51 48.292445 -116.564867 27 2131ft 0kts
07-Dec-18 08:52 48.292445 -116.564867 27 2131ft 0kts
07-Dec-18 08:53 48.292445 -116.564867 27 2131ft 0kts
07-Dec-18 08:54 48.292873 -116.565345 301 2131ft 0kts
07-Dec-18 08:55 48.292873 -116.565345 301 2131ft 0kts
07-Dec-18 08:56 48.293414 -116.565902 30 2131ft 7kts
07-Dec-18 08:57 48.313419 -116.547386 47 3539ft 102kts
07-Dec-18 08:58 48.295902 -116.525593 199 5420ft 113kts
07-Dec-18 08:59 48.265156 -116.537173 202 7131ft 113kts
07-Dec-18 09:00 48.235764 -116.552095 206 8477ft 111kts
07-Dec-18 09:01 48.208188 -116.571860 209 9683ft 110kts
07-Dec-18 09:02 48.175297 -116.593352 211 10078ft 151kts
07-Dec-18 09:03 48.136881 -116.627590 208 10123ft 168kts
07-Dec-18 09:04 48.093567 -116.659645 205 10036ft 176kts
07-Dec-18 09:05 48.047153 -116.682828 201 10034ft 176kts
07-Dec-18 09:06 47.998994 -116.699044 193 10032ft 178kts
07-Dec-18 09:07 47.952277 -116.720681 207 10031ft 175kts
07-Dec-18 09:08 47.907321 -116.748564 206 10027ft 176kts
07-Dec-18 09:09 47.862396 -116.776355 205 10022ft 177kts
07-Dec-18 09:10 47.816124 -116.802426 202 9974ft 179kts
07-Dec-18 09:11 47.769845 -116.809887 131 9928ft 193kts
07-Dec-18 09:12 47.754873 -116.740147 44 10056ft 190kts
07-Dec-18 09:13 47.801560 -116.712642 355 10018ft 178kts
07-Dec-18 09:14 47.851095 -116.700102 11 9599ft 177kts
07-Dec-18 09:15 47.899304 -116.678311 14 9092ft 181kts
07-Dec-18 09:16 47.946827 -116.656252 18 8695ft 180kts
07-Dec-18 09:17 47.991807 -116.632380 13 8784ft 162kts
07-Dec-18 09:18 48.034294 -116.607269 17 8810ft 166kts
07-Dec-18 09:19 48.076945 -116.582108 17 8887ft 165kts
07-Dec-18 09:20 48.118931 -116.557931 17 8932ft 166kts
07-Dec-18 09:21 48.161557 -116.530847 19 8980ft 167kts
07-Dec-18 09:22 48.203974 -116.501565 18 8691ft 172kts
07-Dec-18 09:23 48.249148 -116.474217 22 7899ft 178kts
07-Dec-18 09:24 48.294903 -116.447416 15 6834ft 172kts
07-Dec-18 09:25 48.340315 -116.432333 357 5530ft 165kts
07-Dec-18 09:26 48.376773 -116.435063 354 5745ft 120kts
07-Dec-18 09:27 48.407647 -116.444588 344 5773ft 112kts
07-Dec-18 09:28 48.439242 -116.446892 349 5869ft 112kts
07-Dec-18 09:29 48.471434 -116.450913 345 5941ft 121kts
07-Dec-18 09:30 48.505746 -116.449267 19 5724ft 142kts
07-Dec-18 09:31 48.542381 -116.427086 25 5163ft 134kts
07-Dec-18 09:32 48.573171 -116.404752 17 5078ft 119kts
07-Dec-18 09:33 48.600382 -116.387782 18 4815ft 99kts
07-Dec-18 09:34 48.625563 -116.368576 18 4471ft 109kts
07-Dec-18 09:35 48.652002 -116.351633 19 3846ft 94kts
07-Dec-18 09:36 48.674581 -116.335911 26 3399ft 91kts
07-Dec-18 09:37 48.698028 -116.319824 14 2925ft 92kts
07-Dec-18 09:38 48.720335 -116.301902 36 2409ft 89kts
07-Dec-18 09:39 48.726626 -116.295703 43 2334ft 7kts
07-Dec-18 09:40 48.727722 -116.294356 37 2334ft 11kts
07-Dec-18 09:41 48.729880 -116.292259 128 2334ft 0kts
07-Dec-18 09:42 48.729880 -116.292259 128 2334ft 0kts
07-Dec-18 09:43 48.729880 -116.292260 128 2334ft 0kts
07-Dec-18 09:44 48.729880 -116.292260 128 2334ft 0kts
07-Dec-18 09:45 48.729880 -116.292260 128 2334ft 0kts
07-Dec-18 09:46 48.729880 -116.292260 128 2334ft 0kts
07-Dec-18 09:47 48.729880 -116.292260 128 2334ft 0kts
07-Dec-18 09:48 48.729880 -116.292260 128 2334ft 0kts
07-Dec-18 09:49 48.729880 -116.292260 128 2334ft 0kts
07-Dec-18 09:50 48.425177 10.935899 251 1518ft 0kts
07-Dec-18 09:51 48.425177 10.935899 251 1518ft 0kts
07-Dec-18 09:52 48.425177 10.935899 251 1518ft 0kts

Navigation Log

Ident Type
Flight plan parsing failed, navigation log unavailable